Aérodrome :
LOGIN :

S'inscrire | Disclaimer

   EN    FR    IT 

 










Légende :    VFR   VFR Marginal   IFR   IFR Intensif   IFR Très Intensif
Visi : 
Plafond : 
>= 8 km
>= 3000ft
5 à 8 km
1000 à 3000 ft
1500m à 5 km
500 à 1000 ft
800 à 1500m
200 à 500 ft
< 800m
< 200 ft
Symboles :   Orages  Brouillard  Fortes neiges  Fortes précipitations  Vent > 20 kt
SIGMETs :   Divers  Orages  Givrage  Turbulence  Onde Orograph.  Cendres Volcan.







- Altitude de l'aérodrome : 600 ft
- Code IATA : VIE


LOWW - Vienna Schwechat

DERNIER METAR :
  • 290650Z 19010KT 9999 FEW050 SCT300 22/14 Q0996 BECMG 27018G28KT

METARs EXPIRÉS :
  • 290620Z 17016KT 9999 FEW050 BKN300 21/14 Q0996 BECMG 27018G28KT
  • 290550Z 17015KT 9999 FEW050 BKN300 20/14 Q0996 BECMG FM0700 27015KT
  • 290520Z 17016KT 9999 FEW050 BKN300 19/14 Q0995 NOSIG
  • 290450Z 16016KT 9999 FEW050 BKN300 20/14 Q0995 NOSIG
  • 290420Z 17016KT 9999 FEW050 SCT160 19/13 Q0995 NOSIG

TAF AMD TAF LOWW
Valide du 29 à 06h jusqu'au 30 à 12h UTC


290604Z 2906/3012 17012KT 9999 FEW050 BKN160 TX25/2913Z TN17/3001Z
TEMPO 2906/2908 17015KT
FM290800 27010KT 9999 BKN050
PROB40
TEMPO 2908/2914 28015G25KT 8000 TSRA BKN040 FEW040CB
BECMG 2915/2918 21006KT
PROB30
TEMPO 2921/2924 SHRA BKN050 FEW050TCU
Pas de NOTAMs connus pour ce terrain.



MET'MAP, la Météo Aéronautique d'un coup d'oeil ! - Copyright ORBIFLY Décembre 2007 - Disclaimer

ORBIFLY MET'MAP TEAM :

Programmation & Développement : Alexandra Zaïnal
Conception & Développement : Baudouin d'Aumeries
Co-Programmation & Développement : Marc-Olivier Méhu
Soutien technique & logistique : Manuel Goepfert

Contact : metmap@orbifly.com




SOURCES & CREDITS :

   NOAA